createdAt,value
2019-02-09T00:02:40.616Z,65.24
2019-02-09T00:07:42.725Z,65.02
2019-02-09T00:12:44.743Z,63.72
2019-02-09T00:17:46.672Z,63.63
2019-02-09T00:22:49.169Z,63.71
2019-02-09T00:27:51.804Z,63.73
2019-02-09T00:32:53.845Z,63.81
2019-02-09T00:37:55.842Z,63.33
2019-02-09T00:42:57.931Z,63.25
2019-02-09T00:47:59.925Z,63.03
2019-02-09T00:53:01.998Z,60.08
2019-02-09T00:58:04.225Z,57.40
2019-02-09T01:03:06.336Z,55.83
2019-02-09T01:08:08.563Z,54.59
2019-02-09T01:13:10.606Z,54.24
2019-02-09T01:18:12.511Z,53.94
2019-02-09T01:23:14.549Z,54.42
2019-02-09T01:28:16.625Z,54.77
2019-02-09T01:33:19.613Z,54.58
2019-02-09T01:38:21.703Z,55.24
2019-02-09T01:43:24.003Z,54.80
2019-02-09T01:48:26.130Z,54.75
2019-02-09T01:53:28.169Z,54.56
2019-02-09T01:58:46.314Z,54.20
2019-02-09T02:03:48.322Z,54.45
2019-02-09T02:08:51.255Z,54.44
2019-02-09T02:13:53.656Z,54.69
2019-02-09T02:18:55.673Z,55.81
2019-02-09T02:23:57.766Z,56.60
2019-02-09T02:28:59.870Z,57.53
2019-02-09T02:34:01.992Z,57.08
2019-02-09T02:39:08.749Z,57.33
2019-02-09T02:44:11.042Z,57.51
2019-02-09T02:49:13.050Z,57.32
2019-02-09T02:54:16.226Z,56.60
2019-02-09T02:59:18.269Z,57.10
2019-02-09T03:04:20.779Z,56.66
2019-02-09T03:09:22.708Z,56.82
2019-02-09T03:14:24.654Z,57.06
2019-02-09T03:19:26.653Z,57.91
2019-02-09T03:24:28.540Z,57.96
2019-02-09T03:29:31.148Z,57.92
2019-02-09T03:34:33.071Z,57.95
2019-02-09T03:39:34.944Z,57.91
2019-02-09T03:44:36.968Z,57.94
2019-02-09T03:49:38.849Z,58.09
2019-02-09T03:54:40.942Z,58.79
2019-02-09T03:59:43.463Z,59.71
2019-02-09T04:04:45.473Z,59.59
2019-02-09T04:09:47.374Z,59.44
2019-02-09T04:14:50.607Z,59.00
2019-02-09T04:19:52.618Z,58.11
2019-02-09T04:24:54.497Z,56.99
2019-02-09T04:29:56.698Z,56.74
2019-02-09T04:34:58.697Z,56.60
2019-02-09T04:40:00.593Z,56.33
2019-02-09T04:45:03.653Z,56.26
2019-02-09T04:50:06.438Z,56.23
2019-02-09T04:55:12.173Z,56.39
2019-02-09T05:00:16.977Z,57.13
2019-02-09T05:05:19.298Z,57.36
2019-02-09T05:10:21.420Z,56.62
2019-02-09T05:15:23.755Z,57.57
2019-02-09T05:20:26.943Z,57.64
2019-02-09T05:25:29.069Z,58.51
2019-02-09T05:30:31.265Z,58.90
2019-02-09T05:35:33.164Z,59.28
2019-02-09T05:40:35.147Z,60.21
2019-02-09T05:45:37.058Z,61.05
2019-02-09T05:50:41.875Z,60.24
2019-02-09T05:55:45.275Z,60.33
2019-02-09T06:00:47.333Z,61.44
2019-02-09T06:05:49.548Z,62.06
2019-02-09T06:10:51.427Z,62.34
2019-02-09T06:15:53.339Z,62.33
2019-02-09T06:20:55.240Z,62.27
2019-02-09T06:25:57.709Z,62.58
2019-02-09T06:30:59.826Z,62.73
2019-02-09T06:36:01.880Z,62.75
2019-02-09T06:41:04.870Z,63.23
2019-02-09T06:46:07.131Z,63.13
2019-02-09T06:51:09.134Z,62.87
2019-02-09T06:56:11.236Z,63.23
2019-02-09T07:01:13.181Z,63.71
2019-02-09T07:06:15.121Z,64.11
2019-02-09T07:11:17.106Z,64.58
2019-02-09T07:16:19.056Z,64.55
2019-02-09T07:21:21.190Z,65.00
2019-02-09T07:26:23.628Z,65.23
2019-02-09T07:31:25.649Z,65.63
2019-02-09T07:36:27.582Z,65.63
2019-02-09T07:41:29.668Z,65.54
2019-02-09T07:46:31.697Z,65.52
2019-02-09T07:51:33.616Z,65.22
2019-02-09T07:56:35.514Z,65.25
2019-02-09T08:01:37.416Z,65.68
2019-02-09T08:06:41.250Z,65.56
2019-02-09T08:11:43.243Z,64.41
2019-02-09T08:16:46.385Z,64.42
2019-02-09T08:21:48.294Z,64.03
2019-02-09T08:26:50.407Z,64.05
2019-02-09T08:31:52.452Z,63.99
2019-02-09T08:36:54.770Z,63.64
2019-02-09T08:41:56.767Z,63.45
2019-02-09T08:46:58.683Z,61.86
2019-02-09T08:52:00.661Z,62.30
2019-02-09T08:57:02.752Z,62.24
2019-02-09T09:02:04.877Z,62.41
2019-02-09T09:07:06.980Z,61.23
2019-02-09T09:12:08.865Z,61.39
2019-02-09T09:17:10.755Z,60.49
2019-02-09T09:22:12.685Z,60.38
2019-02-09T09:27:14.694Z,59.15
2019-02-09T09:32:16.788Z,58.21
2019-02-09T09:37:18.735Z,57.78
2019-02-09T09:42:20.643Z,58.72
2019-02-09T09:47:22.525Z,58.44
2019-02-09T09:52:24.421Z,58.75
2019-02-09T09:57:26.301Z,58.15
2019-02-09T10:02:28.237Z,57.79
2019-02-09T10:07:30.155Z,57.02
2019-02-09T10:12:32.146Z,56.37
2019-02-09T10:17:34.142Z,55.93
2019-02-09T10:22:36.050Z,55.43
2019-02-09T10:27:38.264Z,55.62
2019-02-09T10:32:44.425Z,55.66
2019-02-09T10:37:44.598Z,55.09
2019-02-09T10:42:47.029Z,54.33
2019-02-09T10:47:49.858Z,54.96
2019-02-09T10:52:52.035Z,54.13
2019-02-09T10:57:54.296Z,53.31
2019-02-09T11:02:56.545Z,51.88
2019-02-09T11:07:58.548Z,52.58
2019-02-09T11:13:00.668Z,52.16
2019-02-09T11:18:03.677Z,51.18
2019-02-09T11:23:06.112Z,51.72
2019-02-09T11:28:08.289Z,49.81
2019-02-09T11:33:10.559Z,50.03
2019-02-09T11:38:12.647Z,50.00
2019-02-09T11:43:14.594Z,49.64
2019-02-09T11:48:16.525Z,49.32
2019-02-09T11:53:18.420Z,48.88
2019-02-09T11:58:20.378Z,49.77
2019-02-09T12:03:22.416Z,49.61
2019-02-09T12:08:24.330Z,50.40
2019-02-09T12:13:26.345Z,47.76
2019-02-09T12:18:28.282Z,47.89
2019-02-09T12:23:30.238Z,46.89
2019-02-09T12:28:32.130Z,45.99
2019-02-09T12:33:34.449Z,45.47
2019-02-09T12:38:37.253Z,44.80
2019-02-09T12:43:39.159Z,44.26
2019-02-09T12:48:41.396Z,44.04
2019-02-09T12:53:43.282Z,44.49
2019-02-09T12:58:45.318Z,45.08
2019-02-09T13:03:47.483Z,44.65
2019-02-09T13:08:49.396Z,45.45
2019-02-09T13:13:51.349Z,43.47
2019-02-09T13:18:53.262Z,44.33
2019-02-09T13:23:55.571Z,45.28
2019-02-09T13:28:58.424Z,45.06
2019-02-09T13:34:00.648Z,45.22
2019-02-09T13:39:04.651Z,44.88
2019-02-09T13:44:07.722Z,45.08
2019-02-09T13:49:09.961Z,45.59
2019-02-09T13:54:12.123Z,46.89
2019-02-09T13:59:14.045Z,46.12
2019-02-09T14:04:16.952Z,46.44
2019-02-09T14:09:18.844Z,46.76
2019-02-09T14:14:21.055Z,44.00
2019-02-09T14:19:22.966Z,44.33
2019-02-09T14:24:25.021Z,43.12
2019-02-09T14:29:27.117Z,41.45
2019-02-09T14:34:29.567Z,42.99
2019-02-09T14:39:31.567Z,43.34
2019-02-09T14:44:33.625Z,43.54
2019-02-09T14:49:35.527Z,44.27
2019-02-09T14:54:37.591Z,45.80
2019-02-09T14:59:39.628Z,46.00
2019-02-09T15:04:41.536Z,45.78
2019-02-09T15:09:43.773Z,45.80
2019-02-09T15:14:45.718Z,46.40
2019-02-09T15:19:47.724Z,47.56
2019-02-09T15:24:49.792Z,45.38
2019-02-09T15:29:51.769Z,44.95
2019-02-09T15:34:53.695Z,45.19
2019-02-09T15:39:55.625Z,45.83
2019-02-09T15:44:57.988Z,45.31
2019-02-09T15:49:59.985Z,46.83
2019-02-09T15:55:02.003Z,46.18
2019-02-09T16:00:09.507Z,46.56
2019-02-09T16:05:11.826Z,47.97
2019-02-09T16:10:15.094Z,48.83
2019-02-09T16:15:23.220Z,48.76
2019-02-09T16:20:25.191Z,50.19
2019-02-09T16:25:27.524Z,49.68
2019-02-09T16:30:30.008Z,50.87
2019-02-09T16:35:32.606Z,51.40
2019-02-09T16:40:34.833Z,51.21
2019-02-09T16:45:38.168Z,51.33
2019-02-09T16:50:40.061Z,51.59
2019-02-09T16:55:42.036Z,51.61
2019-02-09T17:00:44.459Z,51.59
2019-02-09T17:05:46.467Z,51.19
2019-02-09T17:10:48.498Z,50.94
2019-02-09T17:15:50.590Z,51.00
2019-02-09T17:20:53.492Z,51.93
2019-02-09T17:25:55.477Z,51.77
2019-02-09T17:30:57.429Z,53.17
2019-02-09T17:35:59.342Z,53.40
2019-02-09T17:41:01.340Z,53.53
2019-02-09T17:46:14.358Z,53.43
2019-02-09T17:51:17.770Z,54.77
2019-02-09T17:56:19.667Z,55.26
2019-02-09T18:01:21.810Z,55.21
2019-02-09T18:06:24.896Z,55.47
2019-02-09T18:11:26.933Z,56.04
2019-02-09T18:16:29.045Z,56.01
2019-02-09T18:21:31.029Z,56.63
2019-02-09T18:26:32.993Z,57.05
2019-02-09T18:31:36.745Z,57.19
2019-02-09T18:36:38.735Z,57.41
2019-02-09T18:41:40.646Z,57.40
2019-02-09T18:46:42.595Z,57.47
2019-02-09T18:51:45.273Z,58.25
2019-02-09T18:56:47.424Z,58.71
2019-02-09T19:01:49.553Z,59.06
2019-02-09T19:06:52.058Z,59.20
2019-02-09T19:11:55.223Z,59.25
2019-02-09T19:16:57.514Z,59.48
2019-02-09T19:21:59.499Z,59.94
2019-02-09T19:27:01.427Z,60.28
2019-02-09T19:32:03.764Z,60.53
2019-02-09T19:37:05.869Z,60.95
2019-02-09T19:42:07.909Z,61.66
2019-02-09T19:47:09.801Z,63.45
2019-02-09T19:52:12.005Z,62.65
2019-02-09T19:57:13.966Z,63.08
2019-02-09T20:02:15.861Z,63.11
2019-02-09T20:07:17.762Z,63.20
2019-02-09T20:12:19.844Z,62.24
2019-02-09T20:17:21.938Z,61.02
2019-02-09T20:22:23.874Z,61.45
2019-02-09T20:27:26.222Z,60.79
2019-02-09T20:32:28.413Z,60.70
2019-02-09T20:37:30.461Z,59.89
2019-02-09T20:42:32.341Z,60.66
2019-02-09T20:47:34.350Z,60.71
2019-02-09T20:52:36.234Z,61.49
2019-02-09T20:57:38.385Z,61.47
2019-02-09T21:02:40.434Z,62.21
2019-02-09T21:07:42.619Z,62.75
2019-02-09T21:12:45.765Z,63.35
2019-02-09T21:17:47.796Z,63.48
2019-02-09T21:22:50.097Z,63.39
2019-02-09T21:27:52.143Z,62.61
2019-02-09T21:32:54.672Z,61.72
2019-02-09T21:37:56.718Z,61.19
2019-02-09T21:42:59.102Z,61.37
2019-02-09T21:48:01.226Z,61.07
2019-02-09T21:53:05.127Z,61.12
2019-02-09T21:58:08.023Z,61.06
2019-02-09T22:03:11.342Z,61.35
2019-02-09T22:08:19.582Z,61.64
2019-02-09T22:13:18.602Z,61.86
2019-02-09T22:18:21.889Z,61.89
2019-02-09T22:23:23.746Z,62.20
2019-02-09T22:28:25.641Z,62.25
2019-02-09T22:33:27.694Z,62.36
2019-02-09T22:38:30.141Z,62.68
2019-02-09T22:43:32.186Z,62.98
2019-02-09T22:48:34.109Z,63.00
2019-02-09T22:53:36.029Z,63.27
2019-02-09T22:58:37.913Z,64.12
2019-02-09T23:03:54.335Z,64.82
2019-02-09T23:08:56.272Z,65.40
2019-02-09T23:13:58.206Z,65.77
2019-02-09T23:19:00.114Z,66.06
2019-02-09T23:24:02.138Z,66.17
2019-02-09T23:29:04.250Z,66.14
2019-02-09T23:34:06.269Z,65.99
2019-02-09T23:39:08.260Z,66.21
2019-02-09T23:44:10.318Z,66.11
2019-02-09T23:49:12.234Z,65.88
2019-02-09T23:54:14.959Z,65.48
2019-02-09T23:59:16.850Z,66.03
